Time;durP1;ratioP1;P1;durP2;ratioP2;P2;SDS_P1;SDS_P2;PMS_P1;PMS_P2;Temp;Humidity;BMP_temperature;BMP_pressure;BME280_temperature;BME280_humidity;BME280_pressure;Samples;Min_cycle;Max_cycle;Signal;HPM_P1;HPM_P2
2021/09/15 00:04:46;;;;;;;15.65;8.38;;;;;;;;;;10323953;28;20089;-64
2021/09/15 00:09:46;;;;;;;9.18;5.78;;;;;;;;;;10323145;28;20044;-64
2021/09/15 00:14:44;;;;;;;14.32;6.70;;;;;;;;;;10323577;28;20080;-64
2021/09/15 00:19:43;;;;;;;15.60;8.07;;;;;;;;;;10323464;28;20044;-64
2021/09/15 00:24:41;;;;;;;16.52;8.07;;;;;;;;;;10322081;28;20407;-64
2021/09/15 00:29:41;;;;;;;13.93;8.75;;;;;;;;;;10323166;28;20553;-64
2021/09/15 00:34:39;;;;;;;14.05;7.35;;;;;;;;;;10322928;28;20060;-64
2021/09/15 00:39:39;;;;;;;10.93;6.30;;;;;;;;;;10320932;28;20052;-64
2021/09/15 00:44:37;;;;;;;14.13;6.80;;;;;;;;;;10320947;28;20041;-64
2021/09/15 00:49:37;;;;;;;9.10;6.53;;;;;;;;;;10320533;28;20044;-64
2021/09/15 00:54:36;;;;;;;19.73;7.95;;;;;;;;;;10319017;28;20092;-64
2021/09/15 00:59:36;;;;;;;14.25;7.85;;;;;;;;;;10321989;28;20044;-64
2021/09/15 01:04:34;;;;;;;9.45;7.53;;;;;;;;;;10321792;28;20052;-65
2021/09/15 01:09:36;;;;;;;12.32;8.20;;;;;;;;;;10321716;28;20044;-64
2021/09/15 01:14:39;;;;;;;16.42;8.55;;;;;;;;;;10319859;28;20049;-65
2021/09/15 01:19:37;;;;;;;11.55;7.65;;;;;;;;;;10321301;28;20051;-64
2021/09/15 01:25:00;;;;;;;12.52;7.70;;;;;;;;;;10324289;28;20521;-65
2021/09/15 01:30:17;;;;;;;11.43;7.07;;;;;;;;;;10322678;28;20076;-66
2021/09/15 01:35:20;;;;;;;10.48;7.60;;;;;;;;;;10320545;28;20079;-66
2021/09/15 01:40:21;;;;;;;19.02;8.77;;;;;;;;;;10318782;28;20481;-64
2021/09/15 01:45:19;;;;;;;9.95;6.68;;;;;;;;;;10320469;28;20076;-65
2021/09/15 01:50:18;;;;;;;11.15;7.00;;;;;;;;;;10318081;28;20053;-64
2021/09/15 01:55:22;;;;;;;14.98;8.00;;;;;;;;;;10317806;28;20057;-64
2021/09/15 02:00:27;;;;;;;8.98;6.90;;;;;;;;;;10319770;28;20543;-64
2021/09/15 02:05:42;;;;;;;14.05;8.40;;;;;;;;;;10317071;28;20048;-64
2021/09/15 02:11:04;;;;;;;11.48;7.80;;;;;;;;;;10318171;28;20624;-64
2021/09/15 02:16:04;;;;;;;15.07;9.23;;;;;;;;;;10317205;28;20433;-64
2021/09/15 02:21:03;;;;;;;15.35;8.00;;;;;;;;;;10317230;28;20049;-64
2021/09/15 02:26:38;;;;;;;17.02;8.00;;;;;;;;;;10347241;28;20086;-64
2021/09/15 02:31:38;;;;;;;16.05;8.57;;;;;;;;;;10316461;28;20059;-64
2021/09/15 02:36:51;;;;;;;13.82;8.20;;;;;;;;;;10316657;28;20486;-63
2021/09/15 02:42:13;;;;;;;13.82;7.85;;;;;;;;;;10317390;28;20044;-63
2021/09/15 02:47:28;;;;;;;12.15;7.40;;;;;;;;;;10316116;28;20056;-63
2021/09/15 02:52:47;;;;;;;13.50;8.20;;;;;;;;;;10316618;28;20102;-63
2021/09/15 02:58:09;;;;;;;15.52;9.05;;;;;;;;;;10320843;28;20470;-63
2021/09/15 03:03:29;;;;;;;13.88;8.75;;;;;;;;;;10339148;28;20056;-63
2021/09/15 03:08:34;;;;;;;14.27;8.15;;;;;;;;;;10316844;28;20151;-61
2021/09/15 03:13:34;;;;;;;11.68;8.70;;;;;;;;;;10315659;28;20044;-62
2021/09/15 03:18:33;;;;;;;12.93;8.35;;;;;;;;;;10314774;28;20048;-64
2021/09/15 03:23:33;;;;;;;10.60;7.63;;;;;;;;;;10315333;28;20045;-64
2021/09/15 03:28:31;;;;;;;13.05;8.00;;;;;;;;;;10316833;28;20040;-63
2021/09/15 03:33:31;;;;;;;11.70;8.70;;;;;;;;;;10336576;28;20041;-63
2021/09/15 03:38:29;;;;;;;13.10;9.65;;;;;;;;;;10316691;28;20076;-63
2021/09/15 03:43:31;;;;;;;21.55;9.77;;;;;;;;;;10316674;28;20075;-64
2021/09/15 03:48:31;;;;;;;19.65;11.88;;;;;;;;;;10314983;28;20044;-64
2021/09/15 03:53:30;;;;;;;25.42;17.55;;;;;;;;;;10314400;28;20456;-64
2021/09/15 03:58:30;;;;;;;19.95;10.10;;;;;;;;;;10315127;28;20489;-63
2021/09/15 04:03:28;;;;;;;16.63;10.27;;;;;;;;;;10313641;28;20044;-63
2021/09/15 04:08:28;;;;;;;18.00;10.40;;;;;;;;;;10315742;28;20039;-62
2021/09/15 04:13:27;;;;;;;18.65;9.18;;;;;;;;;;10314217;28;20055;-62
2021/09/15 04:18:25;;;;;;;26.13;11.35;;;;;;;;;;10313594;28;20088;-62
2021/09/15 04:23:27;;;;;;;18.77;9.85;;;;;;;;;;10314468;28;20056;-62
2021/09/15 04:33:42;;;;;;;20.10;11.73;;;;;;;;;;10320965;28;20052;-63
2021/09/15 04:38:41;;;;;;;21.70;16.75;;;;;;;;;;10320273;28;20449;-63
2021/09/15 04:43:45;;;;;;;16.40;12.63;;;;;;;;;;10317296;28;20063;-64
2021/09/15 04:48:44;;;;;;;22.80;9.73;;;;;;;;;;10320410;28;20052;-62
2021/09/15 04:53:43;;;;;;;22.30;9.50;;;;;;;;;;10320063;28;20067;-63
2021/09/15 04:58:42;;;;;;;17.85;9.70;;;;;;;;;;10318604;28;20080;-63
2021/09/15 05:03:42;;;;;;;13.20;9.20;;;;;;;;;;10311381;28;20072;-62
2021/09/15 05:08:43;;;;;;;11.45;8.30;;;;;;;;;;10318521;28;20433;-63
2021/09/15 05:13:42;;;;;;;14.05;7.03;;;;;;;;;;10319056;28;20044;-63
2021/09/15 05:18:42;;;;;;;15.32;7.05;;;;;;;;;;10318460;28;20090;-63
2021/09/15 05:23:41;;;;;;;13.38;7.43;;;;;;;;;;10319119;28;20059;-62
2021/09/15 05:28:40;;;;;;;13.00;7.88;;;;;;;;;;10317408;28;20079;-63
2021/09/15 05:33:38;;;;;;;13.50;8.98;;;;;;;;;;10307930;28;20075;-63
2021/09/15 05:38:38;;;;;;;18.33;10.45;;;;;;;;;;10300615;28;20098;-62
2021/09/15 05:43:44;;;;;;;22.33;13.27;;;;;;;;;;10287026;28;20087;-64
2021/09/15 05:48:46;;;;;;;19.50;9.95;;;;;;;;;;10284516;28;20077;-63
2021/09/15 05:53:46;;;;;;;29.42;10.45;;;;;;;;;;10276017;28;20084;-61
2021/09/15 05:58:45;;;;;;;22.00;9.35;;;;;;;;;;10277080;28;20503;-61
2021/09/15 06:03:43;;;;;;;48.58;37.65;;;;;;;;;;10276911;28;20056;-62
2021/09/15 06:09:06;;;;;;;31.08;14.73;;;;;;;;;;10276761;28;20398;-62
2021/09/15 06:14:06;;;;;;;10.52;7.35;;;;;;;;;;10277015;28;20048;-63
2021/09/15 06:19:04;;;;;;;7.97;6.10;;;;;;;;;;10277850;28;20429;-63
2021/09/15 06:24:30;;;;;;;13.57;7.23;;;;;;;;;;10276519;28;20083;-64
2021/09/15 06:29:29;;;;;;;10.85;6.68;;;;;;;;;;10276078;28;20045;-64
2021/09/15 06:34:27;;;;;;;16.98;7.03;;;;;;;;;;10276132;28;20103;-64
2021/09/15 06:39:25;;;;;;;7.97;6.55;;;;;;;;;;10277403;28;20087;-64
2021/09/15 06:44:25;;;;;;;13.48;7.57;;;;;;;;;;10277140;28;20083;-64
2021/09/15 06:49:23;;;;;;;14.52;7.68;;;;;;;;;;10277337;28;20454;-64
2021/09/15 06:54:22;;;;;;;14.70;7.40;;;;;;;;;;10273146;28;20099;-64
2021/09/15 06:59:21;;;;;;;13.57;7.03;;;;;;;;;;10272961;28;20080;-64
2021/09/15 07:04:20;;;;;;;12.90;6.43;;;;;;;;;;10272831;28;20128;-64
2021/09/15 07:09:19;;;;;;;14.85;7.55;;;;;;;;;;10275020;28;20180;-64
2021/09/15 07:14:17;;;;;;;9.75;7.07;;;;;;;;;;10288280;28;20053;-64
2021/09/15 07:19:16;;;;;;;10.18;7.00;;;;;;;;;;10300601;28;20052;-64
2021/09/15 07:24:15;;;;;;;20.52;8.35;;;;;;;;;;10276979;28;20041;-64
2021/09/15 07:29:14;;;;;;;14.90;9.15;;;;;;;;;;10276523;28;20439;-64
2021/09/15 07:34:12;;;;;;;22.02;8.73;;;;;;;;;;10276168;28;20045;-64
2021/09/15 07:39:10;;;;;;;21.02;9.27;;;;;;;;;;10276213;28;20083;-64
2021/09/15 07:44:10;;;;;;;16.80;9.35;;;;;;;;;;10278458;28;20413;-64
2021/09/15 07:49:08;;;;;;;24.13;18.80;;;;;;;;;;10282985;28;20060;-64
2021/09/15 07:54:07;;;;;;;24.27;13.93;;;;;;;;;;10275974;28;20061;-63
2021/09/15 07:59:06;;;;;;;11.63;8.70;;;;;;;;;;10274995;28;20092;-64
2021/09/15 08:04:05;;;;;;;16.08;7.78;;;;;;;;;;10277775;28;20132;-64
2021/09/15 08:09:04;;;;;;;14.48;9.32;;;;;;;;;;10283364;28;20060;-64
2021/09/15 08:14:02;;;;;;;12.75;6.88;;;;;;;;;;10282976;28;20048;-64
2021/09/15 08:19:02;;;;;;;8.57;6.97;;;;;;;;;;10282805;28;20072;-64
2021/09/15 08:24:10;;;;;;;10.65;7.20;;;;;;;;;;10282675;28;20033;-64
2021/09/15 08:29:09;;;;;;;11.60;7.10;;;;;;;;;;10282635;28;20061;-64
2021/09/15 08:34:07;;;;;;;10.55;7.25;;;;;;;;;;10282498;28;20413;-64
2021/09/15 08:39:05;;;;;;;10.35;6.82;;;;;;;;;;10281988;28;20084;-64
2021/09/15 08:44:05;;;;;;;11.95;7.43;;;;;;;;;;10282047;28;20053;-64
2021/09/15 08:49:04;;;;;;;10.77;8.50;;;;;;;;;;10281765;28;20052;-64
2021/09/15 08:54:02;;;;;;;14.05;7.53;;;;;;;;;;10280866;28;20111;-64
2021/09/15 08:59:05;;;;;;;13.63;7.03;;;;;;;;;;10279667;28;20095;-64
2021/09/15 09:04:03;;;;;;;13.05;7.55;;;;;;;;;;10281030;28;20056;-64
2021/09/15 09:09:04;;;;;;;7.78;6.93;;;;;;;;;;10278888;28;20041;-64
2021/09/15 09:14:09;;;;;;;10.35;7.05;;;;;;;;;;10279025;28;20063;-65
2021/09/15 09:19:08;;;;;;;19.60;8.00;;;;;;;;;;10279695;28;20454;-64
2021/09/15 09:24:07;;;;;;;10.95;7.45;;;;;;;;;;10278511;28;20049;-65
2021/09/15 09:29:13;;;;;;;13.05;7.80;;;;;;;;;;10280130;28;20524;-64
2021/09/15 09:34:11;;;;;;;11.55;7.93;;;;;;;;;;10279958;28;20079;-63
2021/09/15 09:39:11;;;;;;;12.68;7.70;;;;;;;;;;10279024;28;20084;-64
2021/09/15 09:44:10;;;;;;;10.80;7.45;;;;;;;;;;10279501;28;20060;-64
2021/09/15 09:49:11;;;;;;;15.45;8.88;;;;;;;;;;10277868;28;20052;-64
2021/09/15 09:54:12;;;;;;;10.55;7.03;;;;;;;;;;10277423;28;20540;-64
2021/09/15 09:59:11;;;;;;;14.13;8.10;;;;;;;;;;10278980;28;20080;-64
2021/09/15 10:04:11;;;;;;;14.57;8.23;;;;;;;;;;10278915;28;20387;-64
2021/09/15 10:09:09;;;;;;;12.88;6.90;;;;;;;;;;10278665;28;20045;-64
2021/09/15 10:14:09;;;;;;;10.65;7.30;;;;;;;;;;10277639;28;20049;-64
2021/09/15 10:19:08;;;;;;;15.52;7.22;;;;;;;;;;10278218;28;20083;-64
2021/09/15 10:24:08;;;;;;;24.23;8.30;;;;;;;;;;10278108;28;20041;-64
2021/09/15 10:29:16;;;;;;;13.82;7.72;;;;;;;;;;10277816;28;20494;-64
2021/09/15 10:34:44;;;;;;;17.23;8.38;;;;;;;;;;10277775;28;20048;-64
2021/09/15 10:39:54;;;;;;;12.43;7.03;;;;;;;;;;10277727;28;20518;-64
2021/09/15 10:45:07;;;;;;;11.85;6.78;;;;;;;;;;10277427;28;20041;-64
2021/09/15 10:50:06;;;;;;;12.88;7.95;;;;;;;;;;10277340;28;20087;-64
2021/09/15 10:55:16;;;;;;;14.65;8.23;;;;;;;;;;10276465;28;20053;-64
2021/09/15 11:00:26;;;;;;;19.48;8.30;;;;;;;;;;10277074;28;20508;-64
2021/09/15 11:05:41;;;;;;;17.65;7.47;;;;;;;;;;10277262;28;20076;-64
2021/09/15 11:10:42;;;;;;;14.45;7.82;;;;;;;;;;10307798;28;20422;-64
2021/09/15 11:15:42;;;;;;;10.55;8.05;;;;;;;;;;10277217;28;20052;-64
2021/09/15 11:20:40;;;;;;;10.55;6.88;;;;;;;;;;10276904;28;20092;-64
2021/09/15 11:25:38;;;;;;;12.40;6.85;;;;;;;;;;10276659;28;20048;-64
2021/09/15 11:30:39;;;;;;;12.40;6.88;;;;;;;;;;10276860;28;20045;-64
2021/09/15 11:35:40;;;;;;;10.07;6.80;;;;;;;;;;10280410;28;20052;-64
2021/09/15 11:40:38;;;;;;;11.68;5.78;;;;;;;;;;10305538;28;20048;-64
2021/09/15 11:45:38;;;;;;;9.70;6.55;;;;;;;;;;10284764;28;20409;-64
2021/09/15 11:50:36;;;;;;;10.40;6.38;;;;;;;;;;10284397;28;20517;-64
2021/09/15 11:55:40;;;;;;;7.57;5.45;;;;;;;;;;10283330;28;20049;-64
2021/09/15 12:00:42;;;;;;;8.05;5.30;;;;;;;;;;10283185;28;20080;-64
2021/09/15 12:05:42;;;;;;;9.50;5.57;;;;;;;;;;10283992;28;20076;-64
2021/09/15 12:10:40;;;;;;;6.35;4.78;;;;;;;;;;10283012;28;20072;-64
2021/09/15 12:15:48;;;;;;;8.35;5.22;;;;;;;;;;10283577;28;20405;-64
2021/09/15 12:20:47;;;;;;;11.30;6.68;;;;;;;;;;10282505;28;20556;-64
2021/09/15 12:25:52;;;;;;;6.40;5.75;;;;;;;;;;10282532;28;20056;-63
2021/09/15 12:30:52;;;;;;;8.60;6.18;;;;;;;;;;10281689;28;20049;-63
2021/09/15 12:36:07;;;;;;;6.95;5.53;;;;;;;;;;10281605;28;20430;-63
2021/09/15 12:41:06;;;;;;;8.65;5.88;;;;;;;;;;10281864;28;20091;-64
2021/09/15 12:46:23;;;;;;;7.50;5.70;;;;;;;;;;10281327;28;20047;-63
2021/09/15 12:51:22;;;;;;;11.80;7.00;;;;;;;;;;10279649;28;20056;-63
2021/09/15 12:56:22;;;;;;;10.45;6.53;;;;;;;;;;10281532;28;20493;-63
2021/09/15 13:01:21;;;;;;;9.70;6.32;;;;;;;;;;10281148;28;20532;-64
2021/09/15 13:06:22;;;;;;;11.55;6.45;;;;;;;;;;10280600;28;20041;-64
2021/09/15 13:11:20;;;;;;;16.90;7.90;;;;;;;;;;10280782;28;20045;-63
2021/09/15 13:16:20;;;;;;;14.27;6.40;;;;;;;;;;10280161;28;20037;-63
2021/09/15 13:21:18;;;;;;;7.40;5.97;;;;;;;;;;10279881;28;20528;-64
2021/09/15 13:26:18;;;;;;;13.80;6.32;;;;;;;;;;10297623;28;20080;-63
2021/09/15 13:31:16;;;;;;;9.50;5.72;;;;;;;;;;10290240;28;20045;-64
2021/09/15 13:36:15;;;;;;;13.68;6.82;;;;;;;;;;10279567;28;20045;-64
2021/09/15 13:41:13;;;;;;;12.30;6.82;;;;;;;;;;10279198;28;20455;-64
2021/09/15 13:46:13;;;;;;;9.45;6.03;;;;;;;;;;10278989;28;20045;-63
2021/09/15 13:51:11;;;;;;;16.48;7.20;;;;;;;;;;10277842;28;20509;-63
2021/09/15 13:56:10;;;;;;;10.10;6.50;;;;;;;;;;10278504;28;20041;-63
2021/09/15 14:01:08;;;;;;;13.88;6.47;;;;;;;;;;10277981;28;20068;-62
2021/09/15 14:06:08;;;;;;;14.32;6.55;;;;;;;;;;10278336;28;20048;-63
2021/09/15 14:11:07;;;;;;;15.32;8.70;;;;;;;;;;10277864;28;20084;-63
2021/09/15 14:16:06;;;;;;;14.25;6.53;;;;;;;;;;10278137;28;20060;-63
2021/09/15 14:21:04;;;;;;;13.75;6.25;;;;;;;;;;10277684;28;20071;-63
2021/09/15 14:26:04;;;;;;;15.73;5.95;;;;;;;;;;10277052;28;20079;-64
2021/09/15 14:31:02;;;;;;;6.93;5.95;;;;;;;;;;10276590;28;20060;-63
2021/09/15 14:36:01;;;;;;;7.25;6.00;;;;;;;;;;10275532;28;20068;-64
2021/09/15 14:40:59;;;;;;;10.88;6.70;;;;;;;;;;10276695;28;20083;-63
2021/09/15 14:45:59;;;;;;;13.13;6.88;;;;;;;;;;10276728;28;20041;-64
2021/09/15 14:50:57;;;;;;;10.27;6.22;;;;;;;;;;10276362;28;20076;-63
2021/09/15 14:55:56;;;;;;;9.35;6.30;;;;;;;;;;10276412;28;20046;-63
2021/09/15 15:00:54;;;;;;;12.43;6.43;;;;;;;;;;10276105;28;20540;-63
2021/09/15 15:05:54;;;;;;;8.80;6.22;;;;;;;;;;10276287;28;20083;-63
2021/09/15 15:10:52;;;;;;;12.25;7.30;;;;;;;;;;10276148;28;20064;-63
2021/09/15 15:15:51;;;;;;;9.63;7.68;;;;;;;;;;10275512;28;20053;-63
2021/09/15 15:20:49;;;;;;;12.60;8.02;;;;;;;;;;10275622;28;20073;-63
2021/09/15 15:25:49;;;;;;;14.65;9.10;;;;;;;;;;10302890;28;20052;-63
2021/09/15 15:30:48;;;;;;;9.80;7.10;;;;;;;;;;10275596;28;20052;-63
2021/09/15 15:35:47;;;;;;;10.13;6.75;;;;;;;;;;10275321;28;20048;-63
2021/09/15 15:40:45;;;;;;;15.07;7.20;;;;;;;;;;10275466;28;20553;-63
2021/09/15 15:45:47;;;;;;;12.48;7.85;;;;;;;;;;10275348;28;20053;-63
2021/09/15 15:50:45;;;;;;;15.60;7.90;;;;;;;;;;10278693;28;20045;-64
2021/09/15 15:55:47;;;;;;;9.70;8.07;;;;;;;;;;10290777;28;20056;-63
2021/09/15 16:00:47;;;;;;;14.68;8.75;;;;;;;;;;10275532;28;20119;-63
2021/09/15 16:05:46;;;;;;;18.33;9.63;;;;;;;;;;10274922;28;20041;-64
2021/09/15 16:10:44;;;;;;;22.50;16.38;;;;;;;;;;10274811;28;20430;-65
2021/09/15 16:15:43;;;;;;;16.95;13.45;;;;;;;;;;10275320;28;20060;-65
2021/09/15 16:20:43;;;;;;;22.73;9.65;;;;;;;;;;10274641;28;20107;-65
2021/09/15 16:25:41;;;;;;;19.85;11.82;;;;;;;;;;10278072;28;20069;-65
2021/09/15 16:30:40;;;;;;;9.63;8.07;;;;;;;;;;10283173;28;20041;-66
2021/09/15 16:35:38;;;;;;;14.55;10.50;;;;;;;;;;10282609;28;20048;-65
2021/09/15 16:40:38;;;;;;;16.67;8.73;;;;;;;;;;10282357;28;20504;-65
2021/09/15 16:45:36;;;;;;;14.95;9.48;;;;;;;;;;10282326;28;20037;-66
2021/09/15 16:50:34;;;;;;;8.90;7.90;;;;;;;;;;10282334;28;20490;-66
2021/09/15 16:55:33;;;;;;;13.65;10.25;;;;;;;;;;10281155;28;20529;-63
2021/09/15 17:00:32;;;;;;;16.05;8.38;;;;;;;;;;10281805;28;20504;-65
2021/09/15 17:05:31;;;;;;;12.00;8.05;;;;;;;;;;10281619;28;20421;-65
2021/09/15 17:10:30;;;;;;;7.45;6.53;;;;;;;;;;10281285;28;20045;-66
2021/09/15 17:15:28;;;;;;;14.23;6.97;;;;;;;;;;10281042;28;20044;-64
2021/09/15 17:20:28;;;;;;;11.05;6.22;;;;;;;;;;10280838;28;20171;-65
2021/09/15 17:25:26;;;;;;;9.23;6.70;;;;;;;;;;10280669;28;20052;-64
2021/09/15 17:30:24;;;;;;;13.98;7.07;;;;;;;;;;10279444;28;20044;-64
2021/09/15 17:35:23;;;;;;;11.23;6.10;;;;;;;;;;10280129;28;20049;-64
2021/09/15 17:40:22;;;;;;;15.18;7.18;;;;;;;;;;10279724;28;20041;-65
2021/09/15 17:45:21;;;;;;;7.82;6.82;;;;;;;;;;10280002;28;20048;-64
2021/09/15 17:50:19;;;;;;;10.93;6.22;;;;;;;;;;10279964;28;20052;-65
2021/09/15 17:55:17;;;;;;;7.32;6.55;;;;;;;;;;10278955;28;20425;-65
2021/09/15 18:00:17;;;;;;;13.13;5.97;;;;;;;;;;10277582;28;20414;-65
2021/09/15 18:05:16;;;;;;;13.85;6.65;;;;;;;;;;10278124;28;20036;-65
2021/09/15 18:10:15;;;;;;;13.18;6.93;;;;;;;;;;10279226;28;20049;-64
2021/09/15 18:15:13;;;;;;;11.18;6.88;;;;;;;;;;10278737;28;20049;-65
2021/09/15 18:20:13;;;;;;;9.55;6.68;;;;;;;;;;10278550;28;20036;-65
2021/09/15 18:25:11;;;;;;;10.13;7.32;;;;;;;;;;10278489;28;20076;-66
2021/09/15 18:30:10;;;;;;;9.05;5.90;;;;;;;;;;10278276;28;20045;-65
2021/09/15 18:35:09;;;;;;;7.57;6.20;;;;;;;;;;10277979;28;20137;-65
2021/09/15 18:40:10;;;;;;;10.40;6.05;;;;;;;;;;10277940;28;20041;-65
2021/09/15 18:45:08;;;;;;;8.98;6.15;;;;;;;;;;10277941;28;20083;-65
2021/09/15 18:50:07;;;;;;;6.90;5.78;;;;;;;;;;10276485;28;20045;-65
2021/09/15 18:55:06;;;;;;;7.72;5.88;;;;;;;;;;10277007;28;20060;-65
2021/09/15 19:00:08;;;;;;;7.35;5.57;;;;;;;;;;10277496;28;20044;-65
2021/09/15 19:05:07;;;;;;;9.10;5.60;;;;;;;;;;10277013;28;20081;-65
2021/09/15 19:10:06;;;;;;;9.63;6.18;;;;;;;;;;10279411;28;20076;-63
2021/09/15 19:15:05;;;;;;;7.85;5.28;;;;;;;;;;10315844;28;20029;-64
2021/09/15 19:20:07;;;;;;;7.05;6.07;;;;;;;;;;10277309;28;20052;-64
2021/09/15 19:25:05;;;;;;;16.77;5.53;;;;;;;;;;10276913;28;20056;-64
2021/09/15 19:30:04;;;;;;;8.32;4.68;;;;;;;;;;10276842;28;20048;-64
2021/09/15 19:35:03;;;;;;;6.72;4.85;;;;;;;;;;10276630;28;20037;-64
2021/09/15 19:40:08;;;;;;;10.07;6.13;;;;;;;;;;10294505;28;20029;-64
2021/09/15 19:45:07;;;;;;;12.32;5.93;;;;;;;;;;10292337;28;20425;-64
2021/09/15 19:50:05;;;;;;;9.75;6.18;;;;;;;;;;10276276;28;20044;-64
2021/09/15 19:55:04;;;;;;;13.70;5.85;;;;;;;;;;10276483;28;20414;-64
2021/09/15 20:00:05;;;;;;;17.40;6.22;;;;;;;;;;10277145;28;20037;-64
2021/09/15 20:05:09;;;;;;;10.63;6.05;;;;;;;;;;10285458;28;20080;-64
2021/09/15 20:10:08;;;;;;;9.60;6.13;;;;;;;;;;10283638;28;20486;-64
2021/09/15 20:15:09;;;;;;;7.47;6.40;;;;;;;;;;10283410;28;20041;-65
2021/09/15 20:20:08;;;;;;;8.98;6.47;;;;;;;;;;10283280;28;20041;-65
2021/09/15 20:25:07;;;;;;;8.90;6.57;;;;;;;;;;10282935;28;20469;-65
2021/09/15 20:30:06;;;;;;;16.50;7.38;;;;;;;;;;10283139;28;20040;-65
2021/09/15 20:35:06;;;;;;;9.35;6.30;;;;;;;;;;10282736;28;20049;-65
2021/09/15 20:40:05;;;;;;;7.10;6.38;;;;;;;;;;10282762;28;20041;-65
2021/09/15 20:45:04;;;;;;;10.35;6.47;;;;;;;;;;10282328;28;20080;-64
2021/09/15 20:50:02;;;;;;;9.68;6.10;;;;;;;;;;10282373;28;20041;-64
2021/09/15 20:55:02;;;;;;;8.75;6.40;;;;;;;;;;10281371;28;20061;-64
2021/09/15 21:00:01;;;;;;;10.95;6.45;;;;;;;;;;10281579;28;20052;-63
2021/09/15 21:04:59;;;;;;;11.43;6.32;;;;;;;;;;10281591;28;20072;-65
2021/09/15 21:09:57;;;;;;;13.55;6.75;;;;;;;;;;10281536;28;20041;-65
2021/09/15 21:14:57;;;;;;;9.27;6.38;;;;;;;;;;10280102;28;20041;-64
2021/09/15 21:19:57;;;;;;;7.35;6.25;;;;;;;;;;10280842;28;20438;-64
2021/09/15 21:24:55;;;;;;;8.32;6.18;;;;;;;;;;10280505;28;20076;-64
2021/09/15 21:29:58;;;;;;;9.75;6.15;;;;;;;;;;10280581;28;20084;-64
2021/09/15 21:34:56;;;;;;;11.50;6.60;;;;;;;;;;10280362;28;20421;-64
2021/09/15 21:39:54;;;;;;;11.85;6.97;;;;;;;;;;10280160;28;20041;-64
2021/09/15 21:44:53;;;;;;;11.25;6.18;;;;;;;;;;10279846;28;20073;-64
2021/09/15 21:49:52;;;;;;;8.95;5.88;;;;;;;;;;10279794;28;20045;-64
2021/09/15 21:54:51;;;;;;;9.20;6.07;;;;;;;;;;10278991;28;20057;-64
2021/09/15 21:59:49;;;;;;;9.95;6.30;;;;;;;;;;10278423;28;20033;-64
2021/09/15 22:04:47;;;;;;;8.20;6.13;;;;;;;;;;10279202;28;20077;-64
2021/09/15 22:09:47;;;;;;;8.82;6.40;;;;;;;;;;10279013;28;20056;-64
2021/09/15 22:14:45;;;;;;;8.07;6.55;;;;;;;;;;10277728;28;20053;-64
2021/09/15 22:19:44;;;;;;;7.95;6.10;;;;;;;;;;10278574;28;20064;-64
2021/09/15 22:24:42;;;;;;;9.05;6.20;;;;;;;;;;10278022;28;20107;-65
2021/09/15 22:29:42;;;;;;;9.35;6.82;;;;;;;;;;10278165;28;20494;-65
2021/09/15 22:34:40;;;;;;;8.57;7.10;;;;;;;;;;10278121;28;20041;-65
2021/09/15 22:39:38;;;;;;;8.00;6.63;;;;;;;;;;10277932;28;20048;-65
2021/09/15 22:44:36;;;;;;;6.97;6.28;;;;;;;;;;10277629;28;20077;-64
2021/09/15 22:49:36;;;;;;;13.00;6.60;;;;;;;;;;10277544;28;20072;-64
2021/09/15 22:54:34;;;;;;;8.10;6.95;;;;;;;;;;10276781;28;20049;-64
2021/09/15 22:59:33;;;;;;;7.97;6.90;;;;;;;;;;10300486;28;20048;-64
2021/09/15 23:04:31;;;;;;;14.23;6.63;;;;;;;;;;10284460;28;20049;-65
2021/09/15 23:09:31;;;;;;;9.93;6.63;;;;;;;;;;10298231;28;20087;-63
2021/09/15 23:14:29;;;;;;;9.63;6.45;;;;;;;;;;10317721;28;20048;-63
2021/09/15 23:19:27;;;;;;;7.80;6.65;;;;;;;;;;10317487;28;20089;-64
2021/09/15 23:24:25;;;;;;;10.48;7.03;;;;;;;;;;10316847;28;20143;-65
2021/09/15 23:29:25;;;;;;;7.85;6.85;;;;;;;;;;10343140;28;20044;-64
2021/09/15 23:34:23;;;;;;;7.78;6.55;;;;;;;;;;10319076;28;20036;-64
2021/09/15 23:39:22;;;;;;;9.23;6.78;;;;;;;;;;10325565;28;20040;-64
2021/09/15 23:44:20;;;;;;;8.88;7.15;;;;;;;;;;10325319;28;20104;-64
2021/09/15 23:49:20;;;;;;;7.93;7.15;;;;;;;;;;10325215;28;20044;-64
2021/09/15 23:54:18;;;;;;;9.43;7.22;;;;;;;;;;10324268;28;20060;-64
2021/09/15 23:59:16;;;;;;;7.85;6.93;;;;;;;;;;10324825;28;20060;-64
